Aviation Digital Data Service (ADDS)

Output produced by METARs form (0844 UTC 07 December 2021)
found at http://www.aviationweather.gov/metar/data/
 
KSAV 070753Z AUTO 27004KT 10SM CLR 16/15 A3002 RMK AO2 SLP165 T01610150
KSAV 070535Z 0706/0806 23004KT P6SM SCT080 BKN150 
     FM071100 33004KT P6SM BKN015 
     FM071600 05007KT P6SM BKN025 
     FM080300 06004KT P6SM OVC008
       
KSVN 070756Z AUTO 26003KT 10SM BKN150 17/14 A2999 RMK AO2 SLP159 T01690142 $
TAF KSVN 070500Z 0705/0811 22009KT 9999 SCT130 BKN200 QNH2998INS 
     BECMG 0707/0708 22006KT 9999 BKN015 QNH3006INS 
     BECMG 0713/0714 31006KT 8000 BR OVC005 QNH3010INS 
     BECMG 0720/0721 06006KT 9999 NSW BKN012 QNH3012INS TX19/0715Z TN12/0722Z
       
KLHW 070756Z AUTO 23003KT 10SM BKN140 BKN170 16/14 A3000 RMK AO2 SLP162 T01610144 $
KTBR 070835Z AUTO 00000KT 10SM -RA OVC010 17/15 A3003 RMK AO2 T01680148
KVDI 070835Z AUTO 29003KT 10SM -DZ OVC008 17/16 A3005 RMK AO2
KJYL 070835Z AUTO 00000KT 10SM SCT012 OVC019 18/16 A3004 RMK AO2 T01750159
KDBN 070835Z AUTO 34003KT 10SM BKN009 OVC019 15/13 A3006 RMK AO2
KJES 070835Z AUTO 00000KT 17/15 A3005 RMK AO2 PWINO
KSSI 070753Z AUTO 27005KT 10SM CLR 18/16 A3002 RMK AO2 SLP166 T01830161
KSSI 070539Z 0706/0806 24006KT P6SM SCT040 BKN090 BKN200 
     FM071000 29003KT P6SM SCT010 BKN090 BKN200 
     FM071100 32006KT P6SM SCT006 BKN015 BKN090 
     FM071300 35006KT P6SM BKN007 OVC015 
     FM071500 02009KT P6SM OVC008 
     FM071900 05009KT P6SM OVC010
       
KBQK 070835Z AUTO 25004KT 10SM CLR 17/16 A3003 RMK AO2 T01700162
KAYS 070835Z AUTO 00000KT 10SM SCT110 16/15 A3002 RMK AO2 T01600154
KNBC 070836Z AUTO 28005KT 10SM BKN017 18/15 A3002 RMK AO2 T01780150
TAF KNBC 0703/0803 VRB06KT 9999 BKN100 QNH2998INS 
     BECMG 0711/0713 02010KT 9999 SCT015 BKN030 QNH2997INS T17/0716Z T10/0803Z
       
KHXD 070735Z AUTO 28007KT 10SM CLR 18/15 A3002 RMK AO2 PWINO